createdAt,value
2016-05-15T00:00:02.310Z,6.12
2016-05-15T00:01:02.280Z,6.15
2016-05-15T00:02:02.111Z,6.11
2016-05-15T00:03:02.348Z,6.09
2016-05-15T00:04:02.430Z,6.09
2016-05-15T00:05:02.230Z,6.13
2016-05-15T00:06:02.201Z,6.05
2016-05-15T00:07:02.188Z,6.05
2016-05-15T00:08:02.174Z,5.99
2016-05-15T00:09:02.161Z,6.01
2016-05-15T00:10:02.148Z,6.01
2016-05-15T00:11:01.980Z,5.99
2016-05-15T00:12:01.810Z,6.05
2016-05-15T00:13:02.095Z,5.99
2016-05-15T00:14:01.925Z,6.08
2016-05-15T00:15:02.053Z,5.99
2016-05-15T00:16:01.915Z,6.08
2016-05-15T00:17:02.026Z,6.01
2016-05-15T00:18:02.014Z,6.05
2016-05-15T00:19:02.220Z,6.05
2016-05-15T00:20:02.956Z,5.97
2016-05-15T00:21:01.975Z,5.99
2016-05-15T00:22:01.947Z,5.93
2016-05-15T00:23:01.792Z,6.08
2016-05-15T00:24:01.921Z,5.94
2016-05-15T00:25:01.752Z,5.99
2016-05-15T00:26:01.895Z,5.97
2016-05-15T00:27:01.866Z,5.94
2016-05-15T00:28:02.166Z,5.87
2016-05-15T00:29:01.840Z,5.88
2016-05-15T00:30:01.827Z,5.96
2016-05-15T00:31:02.002Z,5.88
2016-05-15T00:32:01.989Z,5.96
2016-05-15T00:33:01.774Z,5.91
2016-05-15T00:34:02.182Z,5.91
2016-05-15T00:35:01.732Z,5.94
2016-05-15T00:36:01.734Z,5.86
2016-05-15T00:37:01.549Z,5.94
2016-05-15T00:38:01.896Z,5.88
2016-05-15T00:39:01.539Z,5.9
2016-05-15T00:40:01.667Z,5.87
2016-05-15T00:41:01.638Z,5.83
2016-05-15T00:42:01.625Z,5.9
2016-05-15T00:43:01.456Z,5.81
2016-05-15T00:44:01.584Z,5.78
2016-05-15T00:45:01.571Z,5.87
2016-05-15T00:46:01.558Z,5.86
2016-05-15T00:47:02.248Z,5.86
2016-05-15T00:48:01.532Z,5.87
2016-05-15T00:49:01.878Z,5.81
2016-05-15T00:50:01.507Z,5.83
2016-05-15T00:51:01.322Z,5.86
2016-05-15T00:52:01.309Z,5.83
2016-05-15T00:53:01.436Z,5.76
2016-05-15T00:54:01.423Z,5.81
2016-05-15T00:55:01.410Z,5.76
2016-05-15T00:56:01.241Z,5.79
2016-05-15T00:57:01.384Z,5.81
2016-05-15T00:58:01.372Z,5.83
2016-05-15T00:59:02.249Z,5.69
2016-05-15T01:00:01.189Z,5.69
2016-05-15T01:01:01.317Z,5.79
2016-05-15T01:02:01.304Z,5.81
2016-05-15T01:03:01.275Z,5.75
2016-05-15T01:04:01.122Z,5.7
2016-05-15T01:05:01.250Z,5.75
2016-05-15T01:06:01.080Z,5.75
2016-05-15T01:07:01.224Z,5.76
2016-05-15T01:08:01.211Z,5.76
2016-05-15T01:09:01.182Z,5.79
2016-05-15T01:10:01.169Z,5.75
2016-05-15T01:11:01.157Z,5.81
2016-05-15T01:12:00.988Z,5.78
2016-05-15T01:13:01.131Z,5.81
2016-05-15T01:14:01.118Z,5.83
2016-05-15T01:15:01.104Z,5.75
2016-05-15T01:16:01.076Z,5.78
2016-05-15T01:17:01.063Z,5.72
2016-05-15T01:18:00.894Z,5.73
2016-05-15T01:19:01.100Z,5.81
2016-05-15T01:20:00.853Z,5.75
2016-05-15T01:21:00.995Z,5.75
2016-05-15T01:22:00.984Z,5.73
2016-05-15T01:23:00.970Z,5.81
2016-05-15T01:24:00.942Z,5.86
2016-05-15T01:25:00.928Z,5.79
2016-05-15T01:26:00.916Z,5.81
2016-05-15T01:27:00.903Z,5.87
2016-05-15T01:28:00.733Z,5.81
2016-05-15T01:29:00.861Z,5.9
2016-05-15T01:30:00.864Z,5.83
2016-05-15T01:31:00.850Z,5.81
2016-05-15T01:32:00.838Z,5.83
2016-05-15T01:33:00.825Z,5.79
2016-05-15T01:34:01.656Z,5.83
2016-05-15T01:35:00.799Z,5.72
2016-05-15T01:36:00.771Z,5.68
2016-05-15T01:37:00.758Z,5.73
2016-05-15T01:38:00.744Z,5.75
2016-05-15T01:39:00.732Z,5.75
2016-05-15T01:40:00.719Z,5.73
2016-05-15T01:41:00.377Z,5.73
2016-05-15T01:42:00.677Z,5.81
2016-05-15T01:43:00.664Z,5.81
2016-05-15T01:44:00.651Z,5.72
2016-05-15T01:45:00.623Z,5.79
2016-05-15T01:46:00.625Z,5.86
2016-05-15T01:47:00.597Z,5.81
2016-05-15T01:48:00.584Z,5.81
2016-05-15T01:49:00.571Z,5.84
2016-05-15T01:50:00.543Z,5.83
2016-05-15T01:51:00.529Z,5.94
2016-05-15T01:52:00.532Z,5.93
2016-05-15T01:53:00.503Z,5.94
2016-05-15T01:54:00.492Z,6.05
2016-05-15T01:55:00.478Z,5.97
2016-05-15T01:56:00.450Z,6.08
2016-05-15T01:57:00.436Z,6.11
2016-05-15T01:58:00.408Z,6.12
2016-05-15T01:59:00.395Z,6.15
2016-05-15T02:00:00.382Z,6.11
2016-05-15T02:01:00.369Z,6.06
2016-05-15T02:02:00.356Z,6.11
2016-05-15T02:03:00.172Z,6.2
2016-05-15T02:04:00.877Z,6.22
2016-05-15T02:05:00.302Z,6.27
2016-05-15T02:06:00.132Z,6.22
2016-05-15T02:07:00.276Z,6.16
2016-05-15T02:08:00.263Z,6.22
2016-05-15T02:09:00.249Z,6.22
2016-05-15T02:10:00.222Z,6.09
2016-05-15T02:11:00.208Z,6.05
2016-05-15T02:12:00.196Z,6.15
2016-05-15T02:13:00.167Z,6.13
2016-05-15T02:13:59.999Z,6.11
2016-05-15T02:14:59.985Z,6.12
2016-05-15T02:16:00.128Z,6.11
2016-05-15T02:17:00.132Z,6.08
2016-05-15T02:18:00.102Z,6.13
2016-05-15T02:19:00.073Z,6.13
2016-05-15T02:20:00.062Z,6.12
2016-05-15T02:20:59.892Z,6.01
2016-05-15T02:22:00.035Z,6.09
2016-05-15T02:23:00.022Z,6.08
2016-05-15T02:23:59.993Z,6.08
2016-05-15T02:24:59.825Z,6.11
2016-05-15T02:25:59.811Z,6.12
2016-05-15T02:26:59.798Z,6.12
2016-05-15T02:27:59.942Z,6.11
2016-05-15T02:28:59.929Z,6.11
2016-05-15T02:29:59.916Z,6.08
2016-05-15T02:30:59.887Z,6.11
2016-05-15T02:31:59.858Z,6.08
2016-05-15T02:32:59.862Z,6.19
2016-05-15T02:33:59.692Z,6.19
2016-05-15T02:34:59.819Z,6.25
2016-05-15T02:35:59.807Z,6.16
2016-05-15T02:36:59.794Z,6.24
2016-05-15T02:37:59.766Z,6.25
2016-05-15T02:38:59.799Z,6.38
2016-05-15T02:39:59.786Z,6.34
2016-05-15T02:40:59.743Z,6.38
2016-05-15T02:41:59.557Z,6.38
2016-05-15T02:42:59.544Z,6.46
2016-05-15T02:43:59.672Z,6.35
2016-05-15T02:44:59.660Z,6.45
2016-05-15T02:45:59.646Z,6.49
2016-05-15T02:46:59.634Z,6.4
2016-05-15T02:47:59.604Z,6.52
2016-05-15T02:48:59.920Z,6.42
2016-05-15T02:49:59.579Z,6.52
2016-05-15T02:50:59.581Z,6.55
2016-05-15T02:51:59.554Z,6.55
2016-05-15T02:52:59.540Z,6.58
2016-05-15T02:53:59.511Z,6.57
2016-05-15T02:54:59.514Z,6.63
2016-05-15T02:55:59.486Z,6.64
2016-05-15T02:56:59.317Z,6.6
2016-05-15T02:57:59.459Z,6.64
2016-05-15T02:58:59.448Z,6.71
2016-05-15T02:59:59.278Z,6.7
2016-05-15T03:00:59.405Z,6.71
2016-05-15T03:01:59.392Z,6.66
2016-05-15T03:02:59.380Z,6.64
2016-05-15T03:03:59.054Z,6.71
2016-05-15T03:04:59.182Z,6.7
2016-05-15T03:05:59.325Z,6.73
2016-05-15T03:06:59.313Z,6.68
2016-05-15T03:07:59.299Z,6.7
2016-05-15T03:08:59.286Z,6.7
2016-05-15T03:09:59.274Z,6.66
2016-05-15T03:10:59.244Z,6.6
2016-05-15T03:11:59.247Z,6.66
2016-05-15T03:12:59.079Z,6.64
2016-05-15T03:13:59.207Z,6.63
2016-05-15T03:14:59.224Z,6.64
2016-05-15T03:15:59.165Z,6.57
2016-05-15T03:16:59.152Z,6.64
2016-05-15T03:17:59.138Z,6.66
2016-05-15T03:18:58.985Z,6.67
2016-05-15T03:19:58.956Z,6.7
2016-05-15T03:20:59.101Z,6.71
2016-05-15T03:21:59.071Z,6.7
2016-05-15T03:22:58.761Z,6.68
2016-05-15T03:23:59.077Z,6.66
2016-05-15T03:24:59.032Z,6.73
2016-05-15T03:25:59.003Z,6.75
2016-05-15T03:26:58.851Z,6.78
2016-05-15T03:27:58.978Z,6.67
2016-05-15T03:28:58.965Z,6.75
2016-05-15T03:29:58.967Z,6.75
2016-05-15T03:30:58.939Z,6.79
2016-05-15T03:31:58.786Z,6.75
2016-05-15T03:32:58.913Z,6.78
2016-05-15T03:33:58.916Z,6.79
2016-05-15T03:34:58.559Z,6.81
2016-05-15T03:35:58.891Z,6.81
2016-05-15T03:36:58.846Z,6.89
2016-05-15T03:37:58.833Z,6.84
2016-05-15T03:38:58.836Z,6.89
2016-05-15T03:39:58.822Z,6.82
2016-05-15T03:40:58.779Z,6.91
2016-05-15T03:41:58.766Z,6.94
2016-05-15T03:42:58.753Z,6.86
2016-05-15T03:43:58.740Z,6.88
2016-05-15T03:44:58.726Z,6.91
2016-05-15T03:45:58.699Z,6.84
2016-05-15T03:46:58.685Z,6.91
2016-05-15T03:47:58.672Z,7.07
2016-05-15T03:48:59.160Z,7.03
2016-05-15T03:49:58.491Z,7
2016-05-15T03:50:58.462Z,7
2016-05-15T03:51:58.604Z,7.06
2016-05-15T03:52:58.608Z,6.99
2016-05-15T03:53:58.595Z,7.04
2016-05-15T03:54:58.566Z,7.12
2016-05-15T03:55:58.570Z,7.1
2016-05-15T03:56:58.384Z,7.1
2016-05-15T03:57:58.528Z,7.03
2016-05-15T03:58:58.498Z,7.12
2016-05-15T03:59:58.486Z,7.12
2016-05-15T04:00:58.473Z,7.06
2016-05-15T04:01:58.460Z,7
2016-05-15T04:02:58.447Z,7.14
2016-05-15T04:03:59.012Z,6.97
2016-05-15T04:04:58.406Z,7.02
2016-05-15T04:05:58.392Z,7
2016-05-15T04:06:58.614Z,7.02
2016-05-15T04:07:58.367Z,7.1
2016-05-15T04:08:58.354Z,7.07
2016-05-15T04:09:58.341Z,7.07
2016-05-15T04:10:58.156Z,7.12
2016-05-15T04:11:58.300Z,7.14
2016-05-15T04:12:58.286Z,7.14
2016-05-15T04:13:58.273Z,7.14
2016-05-15T04:14:58.261Z,7.15
2016-05-15T04:15:58.263Z,7.17
2016-05-15T04:16:58.218Z,7.17
2016-05-15T04:17:58.222Z,7.12
2016-05-15T04:18:58.209Z,7.12
2016-05-15T04:19:58.196Z,7.17
2016-05-15T04:20:58.012Z,7.19
2016-05-15T04:21:57.999Z,7.18
2016-05-15T04:22:58.142Z,7.25
2016-05-15T04:23:58.128Z,7.27
2016-05-15T04:24:58.163Z,7.17
2016-05-15T04:25:58.103Z,7.21
2016-05-15T04:26:58.090Z,7.25
2016-05-15T04:27:58.061Z,7.25
2016-05-15T04:28:58.048Z,7.24
2016-05-15T04:29:58.036Z,7.24
2016-05-15T04:30:58.022Z,7.24
2016-05-15T04:31:58.009Z,7.27
2016-05-15T04:32:57.840Z,7.21
2016-05-15T04:33:57.968Z,7.24
2016-05-15T04:34:57.642Z,7.22
2016-05-15T04:35:57.786Z,7.29
2016-05-15T04:36:57.773Z,7.32
2016-05-15T04:37:57.916Z,7.25
2016-05-15T04:38:57.919Z,7.15
2016-05-15T04:39:57.719Z,7.29
2016-05-15T04:40:57.861Z,7.15
2016-05-15T04:41:57.849Z,7.25
2016-05-15T04:42:57.836Z,7.28
2016-05-15T04:43:57.838Z,7.28
2016-05-15T04:44:57.810Z,7.32
2016-05-15T04:45:57.796Z,7.29
2016-05-15T04:46:57.628Z,7.28
2016-05-15T04:47:57.615Z,7.28
2016-05-15T04:48:58.227Z,7.29
2016-05-15T04:49:57.730Z,7.35
2016-05-15T04:50:57.717Z,7.33
2016-05-15T04:51:57.704Z,7.4
2016-05-15T04:52:57.691Z,7.4
2016-05-15T04:53:57.678Z,7.32
2016-05-15T04:54:57.665Z,7.33
2016-05-15T04:55:57.652Z,7.36
2016-05-15T04:56:57.484Z,7.4
2016-05-15T04:57:57.611Z,7.37
2016-05-15T04:58:57.614Z,7.39
2016-05-15T04:59:57.616Z,7.42
2016-05-15T05:00:57.415Z,7.46
2016-05-15T05:01:57.575Z,7.54
2016-05-15T05:02:57.389Z,7.54
2016-05-15T05:03:57.549Z,7.46
2016-05-15T05:04:57.536Z,7.5
2016-05-15T05:05:57.491Z,7.45
2016-05-15T05:06:57.479Z,7.45
2016-05-15T05:07:57.466Z,7.36
2016-05-15T05:08:57.311Z,7.4
2016-05-15T05:09:57.284Z,7.47
2016-05-15T05:10:57.271Z,7.47
2016-05-15T05:11:57.414Z,7.53
2016-05-15T05:12:57.401Z,7.57
2016-05-15T05:13:57.388Z,7.55
2016-05-15T05:14:57.375Z,7.6
2016-05-15T05:15:57.346Z,7.6
2016-05-15T05:16:57.333Z,7.55
2016-05-15T05:17:57.321Z,7.53
2016-05-15T05:18:57.308Z,7.55
2016-05-15T05:19:57.295Z,7.51
2016-05-15T05:20:57.282Z,7.74
2016-05-15T05:21:57.269Z,7.73
2016-05-15T05:22:57.256Z,7.74
2016-05-15T05:23:57.243Z,7.89
2016-05-15T05:24:57.073Z,7.92
2016-05-15T05:25:57.218Z,8.01
2016-05-15T05:26:57.032Z,8.12
2016-05-15T05:27:57.175Z,8.19
2016-05-15T05:28:57.163Z,8.27
2016-05-15T05:29:57.150Z,8.41
2016-05-15T05:30:57.136Z,8.45
2016-05-15T05:31:56.967Z,8.55
2016-05-15T05:32:56.956Z,8.68
2016-05-15T05:33:57.098Z,8.78
2016-05-15T05:34:56.928Z,8.93
2016-05-15T05:35:57.089Z,8.96
2016-05-15T05:36:56.919Z,9.22
2016-05-15T05:37:57.046Z,9.65
2016-05-15T05:38:57.033Z,9.63
2016-05-15T05:39:56.864Z,9.62
2016-05-15T05:40:57.008Z,9.66
2016-05-15T05:41:56.994Z,9.76
2016-05-15T05:42:57.013Z,10.04
2016-05-15T05:43:56.985Z,10.01
2016-05-15T05:44:56.971Z,9.9
2016-05-15T05:45:56.958Z,9.8
2016-05-15T05:46:56.789Z,9.56
2016-05-15T05:47:56.933Z,9.45
2016-05-15T05:48:56.935Z,9.29
2016-05-15T05:49:56.766Z,9.23
2016-05-15T05:50:56.894Z,9.22
2016-05-15T05:51:56.896Z,9.14
2016-05-15T05:52:56.884Z,9.1
2016-05-15T05:53:56.871Z,9.22
2016-05-15T05:54:56.857Z,9.1
2016-05-15T05:55:56.845Z,9.04
2016-05-15T05:56:56.832Z,9.06
2016-05-15T05:57:56.818Z,9.12
2016-05-15T05:58:56.806Z,9.06
2016-05-15T05:59:56.792Z,9.08
2016-05-15T06:00:56.781Z,9.06
2016-05-15T06:01:56.767Z,9.03
2016-05-15T06:02:56.754Z,8.95
2016-05-15T06:03:56.445Z,9.14
2016-05-15T06:04:57.103Z,9.01
2016-05-15T06:05:56.715Z,9
2016-05-15T06:06:56.703Z,9.08
2016-05-15T06:07:56.689Z,9.1
2016-05-15T06:08:56.677Z,9.2
2016-05-15T06:09:56.663Z,9.12
2016-05-15T06:10:56.495Z,9.08
2016-05-15T06:11:56.638Z,9.04
2016-05-15T06:12:56.625Z,9.08
2016-05-15T06:13:56.611Z,8.96
2016-05-15T06:14:56.443Z,9.08
2016-05-15T06:15:56.430Z,9
2016-05-15T06:16:56.573Z,8.92
2016-05-15T06:17:56.561Z,9
2016-05-15T06:18:56.844Z,9.01
2016-05-15T06:19:56.409Z,9.14
2016-05-15T06:20:56.522Z,9.19
2016-05-15T06:21:56.508Z,9.23
2016-05-15T06:22:56.495Z,9.2
2016-05-15T06:23:56.482Z,9.28
2016-05-15T06:24:56.313Z,9.11
2016-05-15T06:25:56.316Z,9.25
2016-05-15T06:26:56.443Z,9.26
2016-05-15T06:27:56.431Z,9.29
2016-05-15T06:28:56.434Z,9.12
2016-05-15T06:29:56.404Z,9.26
2016-05-15T06:30:56.236Z,9.25
2016-05-15T06:31:56.379Z,9.1
2016-05-15T06:32:56.367Z,9.1
2016-05-15T06:33:56.603Z,9.08
2016-05-15T06:34:56.622Z,9.03
2016-05-15T06:35:56.187Z,9.08
2016-05-15T06:36:56.330Z,9.23
2016-05-15T06:37:56.317Z,9.29
2016-05-15T06:38:56.303Z,9.5
2016-05-15T06:39:56.120Z,9.65
2016-05-15T06:40:56.263Z,9.62
2016-05-15T06:41:56.265Z,9.36
2016-05-15T06:42:56.253Z,9.33
2016-05-15T06:43:56.239Z,9.29
2016-05-15T06:44:56.227Z,9.5
2016-05-15T06:45:56.057Z,9.47
2016-05-15T06:46:56.201Z,9.54
2016-05-15T06:47:56.188Z,9.51
2016-05-15T06:48:56.549Z,9.62
2016-05-15T06:49:56.475Z,9.88
2016-05-15T06:50:56.149Z,9.98
2016-05-15T06:51:56.135Z,10.13
2016-05-15T06:52:56.123Z,10.19
2016-05-15T06:53:56.110Z,10.54
2016-05-15T06:54:56.097Z,10.54
2016-05-15T06:55:55.943Z,10.76
2016-05-15T06:56:56.087Z,11.18
2016-05-15T06:57:56.074Z,11.29
2016-05-15T06:58:56.076Z,11.32
2016-05-15T06:59:56.048Z,11.52
2016-05-15T07:00:56.035Z,11.52
2016-05-15T07:01:55.882Z,11.62
2016-05-15T07:02:56.040Z,11.85
2016-05-15T07:03:56.168Z,12.04
2016-05-15T07:04:55.859Z,12.18
2016-05-15T07:05:56.001Z,12.16
2016-05-15T07:06:55.832Z,12.06
2016-05-15T07:07:55.976Z,12.44
2016-05-15T07:08:55.978Z,12.4
2016-05-15T07:09:55.966Z,12.4
2016-05-15T07:10:55.968Z,12.16
2016-05-15T07:11:55.956Z,12.29
2016-05-15T07:12:55.942Z,12.31
2016-05-15T07:13:55.929Z,12.44
2016-05-15T07:14:55.933Z,12.31
2016-05-15T07:15:55.763Z,12.14
2016-05-15T07:16:55.906Z,11.84
2016-05-15T07:17:55.909Z,11.66
2016-05-15T07:18:55.911Z,11.47
2016-05-15T07:19:56.039Z,11.26
2016-05-15T07:20:55.885Z,11.19
2016-05-15T07:21:55.716Z,10.99
2016-05-15T07:22:55.891Z,10.94
2016-05-15T07:23:55.847Z,10.83
2016-05-15T07:24:55.834Z,10.83
2016-05-15T07:25:55.821Z,10.96
2016-05-15T07:26:55.840Z,10.9
2016-05-15T07:27:55.810Z,10.96
2016-05-15T07:28:55.657Z,10.79
2016-05-15T07:29:55.785Z,10.97
2016-05-15T07:30:55.788Z,11.15
2016-05-15T07:31:55.618Z,11.15
2016-05-15T07:32:55.778Z,10.99
2016-05-15T07:33:55.624Z,11.11
2016-05-15T07:34:55.579Z,11
2016-05-15T07:35:55.581Z,10.96
2016-05-15T07:36:55.710Z,11.07
2016-05-15T07:37:55.712Z,11.07
2016-05-15T07:38:55.720Z,10.93
2016-05-15T07:39:55.750Z,10.87
2016-05-15T07:40:55.797Z,10.87
2016-05-15T07:41:55.655Z,10.81
2016-05-15T07:42:55.701Z,10.97
2016-05-15T07:43:55.703Z,11.33
2016-05-15T07:44:55.862Z,11.59
2016-05-15T07:45:55.881Z,11.63
2016-05-15T07:46:55.883Z,11.57
2016-05-15T07:47:55.886Z,11.58
2016-05-15T07:48:55.884Z,11.36
2016-05-15T07:49:55.892Z,11.39
2016-05-15T07:50:55.885Z,11.5
2016-05-15T07:51:55.877Z,11.87
2016-05-15T07:53:02.386Z,12.24
2016-05-15T07:53:55.720Z,12.09
2016-05-15T07:54:55.865Z,11.75
2016-05-15T07:55:55.854Z,11.8
2016-05-15T07:56:55.842Z,11.84
2016-05-15T07:57:55.847Z,12.13
2016-05-15T07:58:55.836Z,12.31
2016-05-15T07:59:55.824Z,12.55
2016-05-15T08:00:55.827Z,12.79
2016-05-15T08:01:55.658Z,12.62
2016-05-15T08:02:55.647Z,12.79
2016-05-15T08:03:56.118Z,12.72
2016-05-15T08:04:55.637Z,12.57
2016-05-15T08:05:55.640Z,12.31
2016-05-15T08:06:55.613Z,12.13
2016-05-15T08:07:55.772Z,12.29
2016-05-15T08:08:55.758Z,12.47
2016-05-15T08:09:55.747Z,12.43
2016-05-15T08:10:55.749Z,12.21
2016-05-15T08:11:55.579Z,12.01
2016-05-15T08:12:55.566Z,11.87
2016-05-15T08:13:55.726Z,11.76
2016-05-15T08:14:55.713Z,11.7
2016-05-15T08:15:55.699Z,11.83
2016-05-15T08:16:55.687Z,11.62
2016-05-15T08:17:55.690Z,11.62
2016-05-15T08:18:55.676Z,11.72
2016-05-15T08:19:56.070Z,11.72
2016-05-15T08:20:55.651Z,11.77
2016-05-15T08:21:55.763Z,11.8
2016-05-15T08:22:55.671Z,11.73
2016-05-15T08:23:55.737Z,11.67
2016-05-15T08:24:55.490Z,11.84
2016-05-15T08:25:55.445Z,11.73
2016-05-15T08:26:55.448Z,11.77
2016-05-15T08:27:55.591Z,11.29
2016-05-15T08:28:55.579Z,11.11
2016-05-15T08:29:55.690Z,11.11
2016-05-15T08:30:55.552Z,10.93
2016-05-15T08:31:55.399Z,10.83
2016-05-15T08:32:55.370Z,10.83
2016-05-15T08:33:55.389Z,10.71
2016-05-15T08:34:55.375Z,10.63
2016-05-15T08:35:55.504Z,10.6
2016-05-15T08:36:55.538Z,10.49
2016-05-15T08:37:55.477Z,10.41
2016-05-15T08:38:55.309Z,10.2
2016-05-15T08:39:55.327Z,10.26
2016-05-15T08:40:55.454Z,10.19
2016-05-15T08:41:55.441Z,10.22
2016-05-15T08:42:55.272Z,10.2
2016-05-15T08:43:55.260Z,10.22
2016-05-15T08:44:55.402Z,10.01
2016-05-15T08:45:55.390Z,10.2
2016-05-15T08:46:55.361Z,10.16
2016-05-15T08:47:55.363Z,10.54
2016-05-15T08:48:55.366Z,11.24
2016-05-15T08:49:55.182Z,11.72
2016-05-15T08:50:55.326Z,12.04
2016-05-15T08:51:55.312Z,12.4
2016-05-15T08:52:55.159Z,12.58
2016-05-15T08:53:55.286Z,12.72
2016-05-15T08:54:55.289Z,12.83
2016-05-15T08:55:55.276Z,12.68
2016-05-15T08:56:55.279Z,12.52
2016-05-15T08:57:55.265Z,12.42
2016-05-15T08:58:55.268Z,12.46
2016-05-15T08:59:55.240Z,12.44
2016-05-15T09:00:55.227Z,12.28
2016-05-15T09:01:55.058Z,11.88
2016-05-15T09:02:55.217Z,11.77
2016-05-15T09:03:55.203Z,11.85
2016-05-15T09:04:55.442Z,12.37
2016-05-15T09:05:55.194Z,12.64
2016-05-15T09:06:55.164Z,13.04
2016-05-15T09:07:55.230Z,13.38
2016-05-15T09:08:55.154Z,13.6
2016-05-15T09:09:55.001Z,13.56
2016-05-15T09:10:55.145Z,13.31
2016-05-15T09:11:55.132Z,13.35
2016-05-15T09:12:54.977Z,13.53
2016-05-15T09:13:54.966Z,14.12
2016-05-15T09:14:54.968Z,14.25
2016-05-15T09:15:55.095Z,14.32
2016-05-15T09:16:55.395Z,14.33
2016-05-15T09:17:55.086Z,14.5
2016-05-15T09:18:55.072Z,14.48
2016-05-15T09:19:55.403Z,14.27
2016-05-15T09:20:55.109Z,14.21
2016-05-15T09:21:55.064Z,14.19
2016-05-15T09:22:55.052Z,14.05
2016-05-15T09:23:55.039Z,13.79
2016-05-15T09:24:55.026Z,13.64
2016-05-15T09:25:55.029Z,13.54
2016-05-15T09:26:55.015Z,13.59
2016-05-15T09:27:55.018Z,13.6
2016-05-15T09:28:55.006Z,14
2016-05-15T09:29:54.992Z,14.29
2016-05-15T09:30:54.979Z,14.92
2016-05-15T09:31:54.826Z,15.25
2016-05-15T09:32:54.813Z,15.11
2016-05-15T09:33:54.972Z,14.95
2016-05-15T09:34:55.240Z,14.91
2016-05-15T09:35:54.961Z,14.54
2016-05-15T09:36:54.933Z,14.18
2016-05-15T09:37:54.936Z,14.19
2016-05-15T09:38:55.080Z,14.3
2016-05-15T09:39:54.925Z,14.3
2016-05-15T09:40:54.913Z,14.5
2016-05-15T09:41:54.916Z,14.36
2016-05-15T09:42:54.902Z,14.3
2016-05-15T09:43:54.889Z,14.5
2016-05-15T09:44:54.891Z,14.48
2016-05-15T09:45:54.724Z,14.48
2016-05-15T09:46:54.882Z,14.32
2016-05-15T09:47:55.572Z,14.26
2016-05-15T09:48:54.856Z,13.86
2016-05-15T09:49:54.734Z,13.72
2016-05-15T09:50:54.908Z,13.82
2016-05-15T09:51:54.849Z,13.75
2016-05-15T09:52:54.835Z,13.9
2016-05-15T09:53:54.823Z,13.52
2016-05-15T09:54:54.668Z,13.44
2016-05-15T09:55:54.828Z,13.22
2016-05-15T09:56:54.643Z,13.1
2016-05-15T09:57:54.786Z,12.95
2016-05-15T09:58:54.634Z,12.9
2016-05-15T09:59:54.761Z,12.71
2016-05-15T10:00:54.951Z,12.49
2016-05-15T10:01:54.750Z,12.44
2016-05-15T10:02:54.909Z,12.44
2016-05-15T10:03:54.725Z,12.28
2016-05-15T10:04:54.727Z,12.29
2016-05-15T10:05:54.714Z,12.29
2016-05-15T10:06:54.701Z,12.06
2016-05-15T10:07:54.673Z,11.96
2016-05-15T10:08:54.675Z,11.96
2016-05-15T10:09:54.662Z,11.88
2016-05-15T10:10:54.649Z,11.83
2016-05-15T10:11:54.653Z,12
2016-05-15T10:12:54.639Z,12.04
2016-05-15T10:13:54.469Z,12.11
2016-05-15T10:14:54.614Z,12.22
2016-05-15T10:15:54.600Z,12.06
2016-05-15T10:16:54.619Z,12.32
2016-05-15T10:17:54.434Z,12.44
2016-05-15T10:18:54.563Z,12.55
2016-05-15T10:19:54.596Z,12.68
2016-05-15T10:20:54.552Z,13.22
2016-05-15T10:21:54.538Z,13.79
2016-05-15T10:22:54.540Z,14.15
2016-05-15T10:23:54.529Z,14.21
2016-05-15T10:24:54.515Z,14.5
2016-05-15T10:25:54.518Z,14.7
2016-05-15T10:26:54.504Z,14.6
2016-05-15T10:27:54.601Z,14.7
2016-05-15T10:28:54.542Z,14.95
2016-05-15T10:29:54.498Z,14.94
2016-05-15T10:30:54.484Z,15.19
2016-05-15T10:31:54.472Z,15.21
2016-05-15T10:32:54.459Z,15.26
2016-05-15T10:33:54.462Z,15.21
2016-05-15T10:34:55.667Z,15.17
2016-05-15T10:35:54.450Z,15.29
2016-05-15T10:36:54.454Z,15.31
2016-05-15T10:37:54.442Z,15.37
2016-05-15T10:38:54.428Z,15.28
2016-05-15T10:39:54.414Z,15.13
2016-05-15T10:40:54.403Z,14.94
2016-05-15T10:41:54.420Z,14.88
2016-05-15T10:42:54.408Z,14.88
2016-05-15T10:43:54.410Z,14.62
2016-05-15T10:44:54.382Z,14.39
2016-05-15T10:45:54.385Z,14.19
2016-05-15T10:46:54.372Z,14.02
2016-05-15T10:47:54.374Z,13.79
2016-05-15T10:48:54.346Z,13.68
2016-05-15T10:49:54.238Z,13.39
2016-05-15T10:50:54.336Z,13.1
2016-05-15T10:51:54.322Z,13.04
2016-05-15T10:52:54.309Z,12.97
2016-05-15T10:53:54.312Z,12.87
2016-05-15T10:54:54.298Z,12.86
2016-05-15T10:55:54.287Z,12.75
2016-05-15T10:56:54.117Z,12.82
2016-05-15T10:57:54.260Z,12.71
2016-05-15T10:58:54.262Z,12.68
2016-05-15T10:59:54.251Z,12.62
2016-05-15T11:00:54.237Z,12.82
2016-05-15T11:01:54.084Z,12.93
2016-05-15T11:02:54.211Z,13.04
2016-05-15T11:03:54.059Z,13.08
2016-05-15T11:04:54.450Z,13.1
2016-05-15T11:05:54.392Z,13.02
2016-05-15T11:06:54.175Z,13.04
2016-05-15T11:07:54.006Z,13
2016-05-15T11:08:53.836Z,12.95
2016-05-15T11:09:54.137Z,12.86
2016-05-15T11:10:54.139Z,12.86
2016-05-15T11:11:54.142Z,12.75
2016-05-15T11:12:53.957Z,12.62
2016-05-15T11:13:54.100Z,12.47
2016-05-15T11:14:54.102Z,12.34
2016-05-15T11:15:54.106Z,12.32
2016-05-15T11:16:54.077Z,12.28
2016-05-15T11:17:53.908Z,12.39
2016-05-15T11:18:53.894Z,12.27
2016-05-15T11:19:54.101Z,12.01
2016-05-15T11:20:54.025Z,11.88
2016-05-15T11:21:54.027Z,11.87
2016-05-15T11:22:53.999Z,11.93
2016-05-15T11:24:10.033Z,11.75
2016-05-15T11:24:53.832Z,11.9
2016-05-15T11:25:53.976Z,11.87
2016-05-15T11:26:53.807Z,11.96
2016-05-15T11:27:53.793Z,12.13
2016-05-15T11:28:53.781Z,12.13
2016-05-15T11:29:53.924Z,12.19
2016-05-15T11:30:53.912Z,12.28
2016-05-15T11:31:53.898Z,12.61
2016-05-15T11:32:53.886Z,13.08
2016-05-15T11:33:53.889Z,13.6
2016-05-15T11:34:53.876Z,14.18
2016-05-15T11:35:53.862Z,14.82
2016-05-15T11:36:53.865Z,15.22
2016-05-15T11:37:53.680Z,15.59
2016-05-15T11:38:53.667Z,16.15
2016-05-15T11:39:53.826Z,16.66
2016-05-15T11:40:53.829Z,16.96
2016-05-15T11:41:53.816Z,16.89
2016-05-15T11:42:53.913Z,17.26
2016-05-15T11:43:53.649Z,17.27
2016-05-15T11:44:53.809Z,17.37
2016-05-15T11:45:53.796Z,17.41
2016-05-15T11:46:53.783Z,17.44
2016-05-15T11:47:53.785Z,17.46
2016-05-15T11:48:53.772Z,17.39
2016-05-15T11:49:54.024Z,17.11
2016-05-15T11:50:53.778Z,16.42
2016-05-15T11:51:53.749Z,16.04
2016-05-15T11:52:53.752Z,15.87
2016-05-15T11:53:53.738Z,15.59
2016-05-15T11:54:53.585Z,15.37
2016-05-15T11:55:53.837Z,15.1
2016-05-15T11:56:53.732Z,14.69
2016-05-15T11:57:53.719Z,14.48
2016-05-15T11:58:53.721Z,14.25
2016-05-15T11:59:53.692Z,14.08
2016-05-15T12:00:53.898Z,13.86
2016-05-15T12:01:53.667Z,13.72
2016-05-15T12:02:53.685Z,13.6
2016-05-15T12:03:53.657Z,13.63
2016-05-15T12:04:53.347Z,13.78
2016-05-15T12:05:53.646Z,14.14
2016-05-15T12:06:53.664Z,14.18
2016-05-15T12:07:53.620Z,14.17
2016-05-15T12:08:53.654Z,14.1
2016-05-15T12:09:53.454Z,14.33
2016-05-15T12:10:53.597Z,14.86
2016-05-15T12:11:53.584Z,15.49
2016-05-15T12:12:53.587Z,16.12
2016-05-15T12:13:53.590Z,16.21
2016-05-15T12:14:53.577Z,16.83
2016-05-15T12:15:53.564Z,16.86
2016-05-15T12:16:53.566Z,16.53
2016-05-15T12:17:53.553Z,16.78
2016-05-15T12:18:53.540Z,17.12
2016-05-15T12:19:53.574Z,17.01
2016-05-15T12:20:53.234Z,16.9
2016-05-15T12:21:53.564Z,16.75
2016-05-15T12:22:53.521Z,16.6
2016-05-15T12:23:53.523Z,16.66
2016-05-15T12:24:53.369Z,16.33
2016-05-15T12:25:53.512Z,16.36
2016-05-15T12:26:53.500Z,16.75
2016-05-15T12:27:53.487Z,16.82
2016-05-15T12:28:53.490Z,16.93
2016-05-15T12:29:53.492Z,17.12
2016-05-15T12:30:53.479Z,17.26
2016-05-15T12:31:53.482Z,17.36
2016-05-15T12:32:53.469Z,17.56
2016-05-15T12:33:53.456Z,17.63
2016-05-15T12:34:53.303Z,17.45
2016-05-15T12:35:53.289Z,17.44
2016-05-15T12:36:53.448Z,17.52
2016-05-15T12:37:53.279Z,16.87
2016-05-15T12:38:53.439Z,16.78
2016-05-15T12:39:53.426Z,16.75
2016-05-15T12:40:53.412Z,17.26
2016-05-15T12:41:53.415Z,17.01
2016-05-15T12:42:53.402Z,16.76
2016-05-15T12:43:53.420Z,16.33
2016-05-15T12:44:53.407Z,16.02
2016-05-15T12:45:53.395Z,15.99
2016-05-15T12:46:53.397Z,15.77
2016-05-15T12:47:53.369Z,15.82
2016-05-15T12:48:53.372Z,15.82
2016-05-15T12:49:53.780Z,15.65
2016-05-15T12:50:53.361Z,15.5
2016-05-15T12:51:53.348Z,15.22
2016-05-15T12:52:53.351Z,15.17
2016-05-15T12:53:53.338Z,14.96
2016-05-15T12:54:53.169Z,14.92
2016-05-15T12:55:53.327Z,14.69
2016-05-15T12:56:53.299Z,14.39
2016-05-15T12:57:53.302Z,14.27
2016-05-15T12:58:53.289Z,14.25
2016-05-15T12:59:53.291Z,14.18
2016-05-15T13:00:52.966Z,14.23
2016-05-15T13:01:53.265Z,14.39
2016-05-15T13:02:53.253Z,14.63
2016-05-15T13:03:53.098Z,15
2016-05-15T13:04:53.087Z,15.8
2016-05-15T13:05:53.089Z,15.87
2016-05-15T13:06:53.076Z,15.67
2016-05-15T13:07:53.219Z,15.39
2016-05-15T13:08:53.050Z,15.19